Time;durP1;ratioP1;P1;durP2;ratioP2;P2;SDS_P1;SDS_P2;PMS_P1;PMS_P2;Temp;Humidity;BMP_temperature;BMP_pressure;BME280_temperature;BME280_humidity;BME280_pressure;Samples;Min_cycle;Max_cycle;Signal;HPM_P1;HPM_P2
2022/04/24 00:01:04;;;;;;;12.15;6.75;;;;;;;;;;5000510;28;20054;-83
2022/04/24 00:03:50;;;;;;;8.55;5.13;;;;;;;;;;5001031;28;20473;-82
2022/04/24 00:06:36;;;;;;;14.13;6.50;;;;;;;;;;5001124;28;20497;-82
2022/04/24 00:09:21;;;;;;;15.60;5.50;;;;;;;;;;5000946;28;20051;-82
2022/04/24 00:12:09;;;;;;;8.77;4.68;;;;;;;;;;4996497;28;20043;-82
2022/04/24 00:14:54;;;;;;;7.32;4.50;;;;;;;;;;4981435;28;20055;-82
2022/04/24 00:17:40;;;;;;;9.65;4.85;;;;;;;;;;4981337;28;20051;-82
2022/04/24 00:20:26;;;;;;;10.00;5.75;;;;;;;;;;4975924;28;20051;-82
2022/04/24 00:23:11;;;;;;;8.27;5.40;;;;;;;;;;4984251;28;20050;-82
2022/04/24 00:25:57;;;;;;;9.70;5.97;;;;;;;;;;4988040;28;20058;-82
2022/04/24 00:28:42;;;;;;;12.73;6.05;;;;;;;;;;4980001;28;20051;-82
2022/04/24 00:31:28;;;;;;;11.30;6.78;;;;;;;;;;5002840;28;20046;-82
2022/04/24 00:34:13;;;;;;;11.80;6.57;;;;;;;;;;5002091;28;20050;-83
2022/04/24 00:36:58;;;;;;;9.18;5.53;;;;;;;;;;4983387;28;20058;-82
2022/04/24 00:39:43;;;;;;;9.05;4.57;;;;;;;;;;4980859;28;20054;-82
2022/04/24 00:42:29;;;;;;;8.10;4.50;;;;;;;;;;4974838;28;20046;-83
2022/04/24 00:45:15;;;;;;;8.70;4.72;;;;;;;;;;4992451;28;20047;-82
2022/04/24 00:48:07;;;;;;;9.90;5.05;;;;;;;;;;4986352;28;20054;-82
2022/04/24 00:50:52;;;;;;;9.40;5.55;;;;;;;;;;4982527;28;20046;-82
2022/04/24 00:53:38;;;;;;;10.45;5.68;;;;;;;;;;4981711;28;20466;-82
2022/04/24 00:56:30;;;;;;;11.52;5.88;;;;;;;;;;4980717;28;20046;-82
2022/04/24 00:59:16;;;;;;;11.57;6.78;;;;;;;;;;4997284;28;20495;-83
2022/04/24 01:02:04;;;;;;;12.43;5.78;;;;;;;;;;4974669;28;20518;-82
2022/04/24 01:04:49;;;;;;;11.73;5.45;;;;;;;;;;4974749;28;20055;-82
2022/04/24 01:07:35;;;;;;;11.70;5.72;;;;;;;;;;4983865;28;20513;-82
2022/04/24 01:10:20;;;;;;;10.18;5.30;;;;;;;;;;4981566;28;20051;-82
2022/04/24 01:13:06;;;;;;;10.52;5.82;;;;;;;;;;4989944;28;20497;-82
2022/04/24 01:15:51;;;;;;;10.55;5.30;;;;;;;;;;4994255;28;20035;-82
2022/04/24 01:18:38;;;;;;;8.60;5.00;;;;;;;;;;5000825;28;20054;-82
2022/04/24 01:21:23;;;;;;;11.50;5.65;;;;;;;;;;5001085;28;20043;-81
2022/04/24 01:24:09;;;;;;;11.05;5.80;;;;;;;;;;4996091;28;20054;-82
2022/04/24 01:26:54;;;;;;;9.98;5.20;;;;;;;;;;4997809;28;20046;-81
2022/04/24 01:29:40;;;;;;;12.85;5.82;;;;;;;;;;5005002;28;20054;-81
2022/04/24 01:32:26;;;;;;;12.95;5.38;;;;;;;;;;4999525;28;20046;-83
2022/04/24 01:35:13;;;;;;;9.77;5.07;;;;;;;;;;4977790;28;20043;-83
2022/04/24 01:37:58;;;;;;;16.20;5.70;;;;;;;;;;4978282;28;20417;-83
2022/04/24 01:40:43;;;;;;;10.98;5.78;;;;;;;;;;4978148;28;20474;-83
2022/04/24 01:43:29;;;;;;;12.82;6.10;;;;;;;;;;4970474;28;20051;-81
2022/04/24 01:46:14;;;;;;;12.10;7.00;;;;;;;;;;4984872;28;20059;-81
2022/04/24 01:49:00;;;;;;;14.82;7.68;;;;;;;;;;4983791;28;20397;-82
2022/04/24 01:51:46;;;;;;;10.80;5.68;;;;;;;;;;4984728;28;20474;-82
2022/04/24 01:54:31;;;;;;;17.48;6.05;;;;;;;;;;4977661;28;20051;-82
2022/04/24 01:57:17;;;;;;;17.60;6.65;;;;;;;;;;4984558;28;20054;-81
2022/04/24 02:00:03;;;;;;;15.70;6.63;;;;;;;;;;4978374;28;20046;-82
2022/04/24 02:02:57;;;;;;;9.05;6.28;;;;;;;;;;4993037;28;20042;-81
2022/04/24 02:05:42;;;;;;;12.68;6.22;;;;;;;;;;5004110;28;20054;-81
2022/04/24 02:08:28;;;;;;;14.23;6.47;;;;;;;;;;4969376;28;20070;-82
2022/04/24 02:11:13;;;;;;;11.55;5.63;;;;;;;;;;4978133;28;20051;-82
2022/04/24 02:13:59;;;;;;;12.07;5.95;;;;;;;;;;4978488;28;20046;-82
2022/04/24 02:16:44;;;;;;;9.75;5.15;;;;;;;;;;4983629;28;20220;-82
2022/04/24 02:19:30;;;;;;;12.68;6.00;;;;;;;;;;4984445;28;20050;-82
2022/04/24 02:22:15;;;;;;;10.90;5.30;;;;;;;;;;4984032;28;20810;-82
2022/04/24 02:25:04;;;;;;;9.18;5.03;;;;;;;;;;4988515;28;20055;-84
2022/04/24 02:27:55;;;;;;;8.52;4.82;;;;;;;;;;4969307;28;20043;-82
2022/04/24 02:30:40;;;;;;;6.75;4.35;;;;;;;;;;4983831;28;20042;-83
2022/04/24 02:33:25;;;;;;;13.77;4.47;;;;;;;;;;4984443;28;20046;-83
2022/04/24 02:36:11;;;;;;;8.60;4.70;;;;;;;;;;4988973;28;20406;-81
2022/04/24 02:38:57;;;;;;;8.50;4.47;;;;;;;;;;4995537;28;20054;-82
2022/04/24 02:41:42;;;;;;;7.35;4.68;;;;;;;;;;4983492;28;20481;-81
2022/04/24 02:44:28;;;;;;;6.80;4.03;;;;;;;;;;4989351;28;20046;-82
2022/04/24 02:47:13;;;;;;;8.85;4.53;;;;;;;;;;4991807;28;20401;-81
2022/04/24 02:49:59;;;;;;;8.70;4.00;;;;;;;;;;4988613;28;20042;-82
2022/04/24 02:52:53;;;;;;;7.20;3.80;;;;;;;;;;4989827;28;20050;-81
2022/04/24 02:55:38;;;;;;;9.40;3.45;;;;;;;;;;4996195;28;20482;-82
2022/04/24 02:58:25;;;;;;;8.27;4.57;;;;;;;;;;5002230;28;20055;-82
2022/04/24 03:01:11;;;;;;;11.10;5.43;;;;;;;;;;4996312;28;20050;-81
2022/04/24 03:03:57;;;;;;;7.05;4.18;;;;;;;;;;5002546;28;20046;-82
2022/04/24 03:06:42;;;;;;;7.32;3.80;;;;;;;;;;5002502;28;20058;-82
2022/04/24 03:09:28;;;;;;;7.30;4.43;;;;;;;;;;5003636;28;20050;-82
2022/04/24 03:12:14;;;;;;;7.22;4.60;;;;;;;;;;5003295;28;20054;-83
2022/04/24 03:14:59;;;;;;;11.20;5.50;;;;;;;;;;4982779;28;20042;-82
2022/04/24 03:17:46;;;;;;;14.60;5.65;;;;;;;;;;4990373;28;20077;-81
2022/04/24 03:20:31;;;;;;;9.70;5.03;;;;;;;;;;4986735;28;20050;-81
2022/04/24 03:23:17;;;;;;;13.30;6.03;;;;;;;;;;4983208;28;20051;-81
2022/04/24 03:26:03;;;;;;;17.40;8.43;;;;;;;;;;4975230;28;20047;-82
2022/04/24 03:28:48;;;;;;;12.90;6.25;;;;;;;;;;4967911;28;20055;-82
2022/04/24 03:31:34;;;;;;;10.98;5.75;;;;;;;;;;4983072;28;20051;-80
2022/04/24 03:34:20;;;;;;;11.02;5.25;;;;;;;;;;4982288;28;20050;-83
2022/04/24 03:37:05;;;;;;;10.30;5.20;;;;;;;;;;4982540;28;20398;-82
2022/04/24 03:39:50;;;;;;;9.70;4.93;;;;;;;;;;4975959;28;20050;-81
2022/04/24 03:42:36;;;;;;;12.27;5.68;;;;;;;;;;4975579;28;20047;-82
2022/04/24 03:45:21;;;;;;;10.50;5.97;;;;;;;;;;4976116;28;20055;-82
2022/04/24 03:48:06;;;;;;;8.98;6.35;;;;;;;;;;4980973;28;20402;-82
2022/04/24 03:50:52;;;;;;;10.40;5.50;;;;;;;;;;4967808;28;20394;-82
2022/04/24 03:53:37;;;;;;;8.88;5.85;;;;;;;;;;4975223;28;20034;-82
2022/04/24 03:56:22;;;;;;;8.27;5.55;;;;;;;;;;4981746;28;20043;-82
2022/04/24 03:59:08;;;;;;;12.45;6.30;;;;;;;;;;4982461;28;20046;-83
2022/04/24 04:01:53;;;;;;;10.23;5.60;;;;;;;;;;4981703;28;20047;-82
2022/04/24 04:04:39;;;;;;;11.30;7.40;;;;;;;;;;4981995;28;20050;-81
2022/04/24 04:07:24;;;;;;;16.98;9.75;;;;;;;;;;4975470;28;20047;-81
2022/04/24 04:10:09;;;;;;;28.40;13.75;;;;;;;;;;4982132;28;20401;-83
2022/04/24 04:12:55;;;;;;;25.77;13.98;;;;;;;;;;4975473;28;20043;-82
2022/04/24 04:15:40;;;;;;;18.48;10.73;;;;;;;;;;4966857;28;20051;-81
2022/04/24 04:18:25;;;;;;;17.73;10.20;;;;;;;;;;4981779;28;20055;-82
2022/04/24 04:21:10;;;;;;;12.35;6.70;;;;;;;;;;4982052;28;20047;-82
2022/04/24 04:23:56;;;;;;;12.20;6.53;;;;;;;;;;4981403;28;20429;-82
2022/04/24 04:26:42;;;;;;;19.95;8.52;;;;;;;;;;4981783;28;20051;-82
2022/04/24 04:29:27;;;;;;;14.02;8.15;;;;;;;;;;4975007;28;20047;-82
2022/04/24 04:32:13;;;;;;;16.50;8.90;;;;;;;;;;4975219;28;20478;-83
2022/04/24 04:34:58;;;;;;;16.77;7.93;;;;;;;;;;4981292;28;20046;-82
2022/04/24 04:37:43;;;;;;;11.90;6.88;;;;;;;;;;4979860;28;20059;-82
2022/04/24 04:40:30;;;;;;;12.18;7.28;;;;;;;;;;4981529;28;20043;-82
2022/04/24 04:43:16;;;;;;;15.63;6.65;;;;;;;;;;4974895;28;20055;-82
2022/04/24 04:46:02;;;;;;;10.32;6.85;;;;;;;;;;4974922;28;20047;-82
2022/04/24 04:48:47;;;;;;;18.83;10.60;;;;;;;;;;4981772;28;20394;-82
2022/04/24 04:51:32;;;;;;;24.40;15.05;;;;;;;;;;4975109;28;20430;-82
2022/04/24 04:54:17;;;;;;;24.55;14.50;;;;;;;;;;4981239;28;20050;-82
2022/04/24 04:57:03;;;;;;;19.77;11.45;;;;;;;;;;4981046;28;20482;-82
2022/04/24 04:59:49;;;;;;;17.40;10.23;;;;;;;;;;4984179;28;20046;-82
2022/04/24 05:02:38;;;;;;;18.33;9.75;;;;;;;;;;4989802;28;20454;-83
2022/04/24 05:05:22;;;;;;;12.20;7.68;;;;;;;;;;4985806;28;20054;-82
2022/04/24 05:08:08;;;;;;;11.45;7.07;;;;;;;;;;4978560;28;20482;-83
2022/04/24 05:10:53;;;;;;;12.27;7.47;;;;;;;;;;4984925;28;20046;-82
2022/04/24 05:13:38;;;;;;;10.73;7.20;;;;;;;;;;4978209;28;20486;-84
2022/04/24 05:16:24;;;;;;;11.00;6.90;;;;;;;;;;4985152;28;20402;-83
2022/04/24 05:19:10;;;;;;;12.70;7.07;;;;;;;;;;4984700;28;20047;-82
2022/04/24 05:21:55;;;;;;;8.93;6.05;;;;;;;;;;4964173;28;20177;-83
2022/04/24 05:24:41;;;;;;;9.77;6.68;;;;;;;;;;4978624;28;20054;-82
2022/04/24 05:27:26;;;;;;;11.93;7.22;;;;;;;;;;4978153;28;20054;-83
2022/04/24 05:30:12;;;;;;;11.77;7.15;;;;;;;;;;4989703;28;20397;-82
2022/04/24 05:32:58;;;;;;;9.65;6.00;;;;;;;;;;4970510;28;20050;-82
2022/04/24 05:35:43;;;;;;;9.85;6.63;;;;;;;;;;4994840;28;20055;-82
2022/04/24 05:38:29;;;;;;;8.98;6.18;;;;;;;;;;4983297;28;20051;-82
2022/04/24 05:41:14;;;;;;;14.35;7.43;;;;;;;;;;4990907;28;20042;-82
2022/04/24 05:44:00;;;;;;;9.40;6.72;;;;;;;;;;4986363;28;20051;-82
2022/04/24 05:46:45;;;;;;;10.00;6.55;;;;;;;;;;4990541;28;20050;-83
2022/04/24 05:49:30;;;;;;;11.57;6.85;;;;;;;;;;4972109;28;20051;-82
2022/04/24 05:52:15;;;;;;;10.60;6.57;;;;;;;;;;4988478;28;20055;-82
2022/04/24 05:55:00;;;;;;;10.55;6.18;;;;;;;;;;4990861;28;20076;-83
2022/04/24 05:57:49;;;;;;;10.98;6.82;;;;;;;;;;4984992;28;20062;-83
2022/04/24 06:00:36;;;;;;;8.65;5.93;;;;;;;;;;4989548;28;20050;-81
2022/04/24 06:03:21;;;;;;;9.70;5.90;;;;;;;;;;4997382;28;20046;-81
2022/04/24 06:06:07;;;;;;;10.38;6.00;;;;;;;;;;5004084;28;20055;-82
2022/04/24 06:08:52;;;;;;;11.38;6.43;;;;;;;;;;4985157;28;20046;-82
2022/04/24 06:11:41;;;;;;;11.85;6.65;;;;;;;;;;4987416;28;20051;-82
2022/04/24 06:14:26;;;;;;;10.50;6.82;;;;;;;;;;4993373;28;20050;-83
2022/04/24 06:17:12;;;;;;;10.35;6.43;;;;;;;;;;4991912;28;20050;-83
2022/04/24 06:19:57;;;;;;;10.65;6.63;;;;;;;;;;4996523;28;20050;-81
2022/04/24 06:22:45;;;;;;;11.10;6.15;;;;;;;;;;5002845;28;20046;-83
2022/04/24 06:25:31;;;;;;;9.68;5.70;;;;;;;;;;4995482;28;20055;-83
2022/04/24 06:28:16;;;;;;;9.30;5.90;;;;;;;;;;4999505;28;20494;-83
2022/04/24 06:31:02;;;;;;;7.32;5.30;;;;;;;;;;4985915;28;20518;-83
2022/04/24 06:33:47;;;;;;;9.75;5.75;;;;;;;;;;4992591;28;20050;-82
2022/04/24 06:36:33;;;;;;;9.45;5.70;;;;;;;;;;4997290;28;20487;-83
2022/04/24 06:39:19;;;;;;;10.02;5.90;;;;;;;;;;4988051;28;20054;-82
2022/04/24 06:42:04;;;;;;;12.05;6.53;;;;;;;;;;4974852;28;20046;-84
2022/04/24 06:44:56;;;;;;;11.52;6.20;;;;;;;;;;4975051;28;20047;-83
2022/04/24 06:47:42;;;;;;;10.60;6.53;;;;;;;;;;4968957;28;20042;-84
2022/04/24 06:50:29;;;;;;;11.75;6.13;;;;;;;;;;4983391;28;20046;-84
2022/04/24 06:53:20;;;;;;;12.60;7.10;;;;;;;;;;4969783;28;20055;-84
2022/04/24 06:56:05;;;;;;;10.57;6.72;;;;;;;;;;4976419;28;20043;-83
2022/04/24 06:58:52;;;;;;;8.65;5.85;;;;;;;;;;4984311;28;20053;-84
2022/04/24 07:01:37;;;;;;;10.15;6.60;;;;;;;;;;4976388;28;20043;-84
2022/04/24 07:04:23;;;;;;;10.20;6.55;;;;;;;;;;4983109;28;20051;-84
2022/04/24 07:07:08;;;;;;;10.05;5.90;;;;;;;;;;4977112;28;20422;-82
2022/04/24 07:09:54;;;;;;;8.85;6.45;;;;;;;;;;4990075;28;20051;-83
2022/04/24 07:12:49;;;;;;;11.65;6.15;;;;;;;;;;4990141;28;20062;-85
2022/04/24 07:15:36;;;;;;;13.52;6.15;;;;;;;;;;4981982;28;20055;-81
2022/04/24 07:18:22;;;;;;;9.38;5.50;;;;;;;;;;4970240;28;20047;-85
2022/04/24 07:21:08;;;;;;;11.88;5.97;;;;;;;;;;4992203;28;20054;-86
2022/04/24 07:23:53;;;;;;;10.18;5.35;;;;;;;;;;4983340;28;20473;-83
2022/04/24 07:26:38;;;;;;;15.15;5.82;;;;;;;;;;4993605;28;20153;-82
2022/04/24 07:29:24;;;;;;;10.98;5.50;;;;;;;;;;4985837;28;20050;-81
2022/04/24 07:32:12;;;;;;;13.15;5.95;;;;;;;;;;5001685;28;20397;-85
2022/04/24 07:34:58;;;;;;;13.80;5.85;;;;;;;;;;4991575;28;20039;-82
2022/04/24 07:37:44;;;;;;;8.38;4.82;;;;;;;;;;4980291;28;20047;-82
2022/04/24 07:40:32;;;;;;;11.68;4.72;;;;;;;;;;4979338;28;20050;-82
2022/04/24 07:43:17;;;;;;;11.63;6.18;;;;;;;;;;4977035;28;20050;-80
2022/04/24 07:46:03;;;;;;;12.68;5.05;;;;;;;;;;4982359;28;20046;-79
2022/04/24 07:48:49;;;;;;;13.35;6.15;;;;;;;;;;4982263;28;20046;-81
2022/04/24 07:51:35;;;;;;;10.30;5.00;;;;;;;;;;4970031;28;20050;-83
2022/04/24 07:54:20;;;;;;;15.43;7.45;;;;;;;;;;4988286;28;20046;-82
2022/04/24 07:57:05;;;;;;;12.85;6.85;;;;;;;;;;4975708;28;20470;-82
2022/04/24 07:59:51;;;;;;;10.88;6.25;;;;;;;;;;4967683;28;20046;-81
2022/04/24 08:03:06;;;;;;;9.57;5.60;;;;;;;;;;4976204;28;20050;-82
2022/04/24 08:05:51;;;;;;;3.17;1.63;;;;;;;;;;4981211;28;20039;-82
2022/04/24 08:08:36;;;;;;;8.80;2.40;;;;;;;;;;4985067;28;20047;-82
2022/04/24 08:11:22;;;;;;;6.25;2.60;;;;;;;;;;4976080;28;20051;-83
2022/04/24 08:14:07;;;;;;;5.28;2.10;;;;;;;;;;4973252;28;20058;-82
2022/04/24 08:16:52;;;;;;;4.53;2.33;;;;;;;;;;4991669;28;20397;-82
2022/04/24 08:19:37;;;;;;;4.70;2.55;;;;;;;;;;4990154;28;20042;-83
2022/04/24 08:22:23;;;;;;;5.78;2.47;;;;;;;;;;4979457;28;20485;-82
2022/04/24 08:52:30;;;;;;;6.18;3.00;;;;;;;;;;5066085;28;20364;-82
2022/04/24 08:55:16;;;;;;;3.83;1.60;;;;;;;;;;5067751;28;20045;-80
2022/04/24 08:58:01;;;;;;;5.95;1.60;;;;;;;;;;5067837;28;20121;-81
2022/04/24 09:00:47;;;;;;;4.65;2.22;;;;;;;;;;5067201;28;20049;-79
2022/04/24 09:03:32;;;;;;;5.22;2.42;;;;;;;;;;5067655;28;20033;-81
2022/04/24 09:06:24;;;;;;;4.05;2.00;;;;;;;;;;5067541;28;20041;-82
2022/04/24 09:09:09;;;;;;;5.65;2.15;;;;;;;;;;5073055;28;20037;-81
2022/04/24 09:12:24;;;;;;;6.05;2.70;;;;;;;;;;5068030;28;20049;-81
2022/04/24 09:15:17;;;;;;;8.03;2.50;;;;;;;;;;5067132;28;20049;-81
2022/04/24 09:18:02;;;;;;;7.35;2.60;;;;;;;;;;5073489;28;20044;-80
2022/04/24 09:20:54;;;;;;;8.88;2.80;;;;;;;;;;5073766;28;20041;-81
2022/04/24 09:23:43;;;;;;;5.50;2.78;;;;;;;;;;5067580;28;20045;-82
2022/04/24 09:26:29;;;;;;;8.00;3.00;;;;;;;;;;5067320;28;20389;-79
2022/04/24 09:29:14;;;;;;;7.18;3.10;;;;;;;;;;5073574;28;20045;-80
2022/04/24 09:32:00;;;;;;;5.88;2.67;;;;;;;;;;5066839;28;20040;-79
2022/04/24 09:34:49;;;;;;;7.53;3.30;;;;;;;;;;5071754;28;20041;-81
2022/04/24 09:37:41;;;;;;;3.33;1.83;;;;;;;;;;5075259;28;20037;-80
2022/04/24 09:40:37;;;;;;;5.32;2.33;;;;;;;;;;5070814;28;20044;-79
2022/04/24 09:43:22;;;;;;;4.60;2.15;;;;;;;;;;5070184;28;20049;-80
2022/04/24 09:46:08;;;;;;;5.97;2.58;;;;;;;;;;5072206;28;20041;-84
2022/04/24 09:48:58;;;;;;;5.60;2.45;;;;;;;;;;5080002;28;20481;-80
2022/04/24 09:51:43;;;;;;;4.40;1.80;;;;;;;;;;5065212;28;20041;-78
2022/04/24 09:54:30;;;;;;;9.30;2.90;;;;;;;;;;5055848;28;20041;-80
2022/04/24 09:57:18;;;;;;;7.90;2.58;;;;;;;;;;5056433;28;20049;-80
2022/04/24 10:00:05;;;;;;;9.60;3.47;;;;;;;;;;5053541;28;20041;-81
2022/04/24 10:02:54;;;;;;;7.78;2.30;;;;;;;;;;5059418;28;20041;-81
2022/04/24 10:05:42;;;;;;;7.28;3.10;;;;;;;;;;5053244;28;20041;-83
2022/04/24 10:08:27;;;;;;;4.85;1.98;;;;;;;;;;5057195;28;20048;-80
2022/04/24 10:11:12;;;;;;;7.30;3.55;;;;;;;;;;5059215;28;20037;-82
2022/04/24 10:14:03;;;;;;;4.53;2.40;;;;;;;;;;5059049;28;20045;-82
2022/04/24 10:16:51;;;;;;;7.15;3.60;;;;;;;;;;5059464;28;20041;-79
2022/04/24 10:20:18;;;;;;;4.53;2.13;;;;;;;;;;5053942;28;20049;-79
2022/04/24 10:23:04;;;;;;;5.30;2.38;;;;;;;;;;5060233;28;20044;-79
2022/04/24 10:25:49;;;;;;;4.53;2.60;;;;;;;;;;5053093;28;20037;-79
2022/04/24 10:28:39;;;;;;;5.93;2.75;;;;;;;;;;5052632;28;20045;-82
2022/04/24 10:31:24;;;;;;;2.75;1.95;;;;;;;;;;5052284;28;20053;-82
2022/04/24 10:34:11;;;;;;;5.20;2.50;;;;;;;;;;5052469;28;20041;-78
2022/04/24 10:36:56;;;;;;;2.63;1.45;;;;;;;;;;5059404;28;20045;-81
2022/04/24 10:39:42;;;;;;;4.55;2.10;;;;;;;;;;5052108;28;20206;-80
2022/04/24 10:42:35;;;;;;;3.53;1.85;;;;;;;;;;5059383;28;20037;-81
2022/04/24 10:45:32;;;;;;;7.70;1.70;;;;;;;;;;5059124;28;20052;-82
2022/04/24 10:48:19;;;;;;;5.47;2.00;;;;;;;;;;5052300;28;20037;-78
2022/04/24 10:51:05;;;;;;;4.65;1.65;;;;;;;;;;5057358;28;20401;-80
2022/04/24 10:53:56;;;;;;;4.35;2.10;;;;;;;;;;5060538;28;20092;-80
2022/04/24 10:56:43;;;;;;;5.32;2.53;;;;;;;;;;5052474;28;20041;-79
2022/04/24 10:59:44;;;;;;;4.60;2.63;;;;;;;;;;5051935;28;20048;-82
2022/04/24 11:02:30;;;;;;;8.70;3.30;;;;;;;;;;5051973;28;20486;-80
2022/04/24 11:05:21;;;;;;;5.88;3.85;;;;;;;;;;5057531;28;20041;-81
2022/04/24 11:08:07;;;;;;;6.70;2.70;;;;;;;;;;5058800;28;20045;-81
2022/04/24 11:11:04;;;;;;;8.52;3.88;;;;;;;;;;5058225;28;20045;-81
2022/04/24 11:13:50;;;;;;;5.93;2.30;;;;;;;;;;5058545;28;20045;-82
2022/04/24 11:16:35;;;;;;;5.30;2.67;;;;;;;;;;5057784;28;20044;-81
2022/04/24 11:19:29;;;;;;;3.60;1.67;;;;;;;;;;5058984;28;20041;-83
2022/04/24 11:22:14;;;;;;;5.82;1.80;;;;;;;;;;5058670;28;20041;-80
2022/04/24 11:25:00;;;;;;;5.35;2.03;;;;;;;;;;5051664;28;20049;-81
2022/04/24 11:27:51;;;;;;;5.88;2.28;;;;;;;;;;5051487;28;20045;-81
2022/04/24 11:30:38;;;;;;;5.35;1.90;;;;;;;;;;5051663;28;20045;-81
2022/04/24 11:33:24;;;;;;;4.82;1.80;;;;;;;;;;5057739;28;20041;-81
2022/04/24 11:36:09;;;;;;;6.63;1.80;;;;;;;;;;5051817;28;20036;-79
2022/04/24 11:38:56;;;;;;;4.53;1.95;;;;;;;;;;5051304;28;20037;-81
2022/04/24 11:41:43;;;;;;;6.18;2.17;;;;;;;;;;5051392;28;20056;-80
2022/04/24 11:50:36;;;;;;;5.07;2.38;;;;;;;;;;5051039;28;20405;-82
2022/04/24 11:53:22;;;;;;;5.47;3.08;;;;;;;;;;5052929;28;20049;-82
2022/04/24 11:56:09;;;;;;;5.35;1.40;;;;;;;;;;5061756;28;20038;-82
2022/04/24 11:59:12;;;;;;;3.60;1.42;;;;;;;;;;5051341;28;20041;-82
2022/04/24 12:01:59;;;;;;;7.50;2.72;;;;;;;;;;5056993;28;20049;-80
2022/04/24 12:04:50;;;;;;;13.55;3.10;;;;;;;;;;5060141;28;20466;-82
2022/04/24 12:07:36;;;;;;;15.05;2.35;;;;;;;;;;5051339;28;20045;-81
2022/04/24 12:10:23;;;;;;;9.35;2.55;;;;;;;;;;5050927;28;20163;-81
2022/04/24 12:13:09;;;;;;;7.18;1.67;;;;;;;;;;5056891;28;20049;-81
2022/04/24 12:15:54;;;;;;;6.43;1.98;;;;;;;;;;5050561;28;20393;-80
2022/04/24 12:18:40;;;;;;;4.80;2.42;;;;;;;;;;5057446;28;20049;-81
2022/04/24 12:21:27;;;;;;;6.72;1.98;;;;;;;;;;5051187;28;20049;-83
2022/04/24 12:24:12;;;;;;;9.50;2.60;;;;;;;;;;5050560;28;20045;-81
2022/04/24 12:27:04;;;;;;;6.00;2.28;;;;;;;;;;5056467;28;20508;-81
2022/04/24 12:29:49;;;;;;;4.03;1.92;;;;;;;;;;5050791;28;20061;-80
2022/04/24 12:32:36;;;;;;;8.63;2.00;;;;;;;;;;5050373;28;20481;-80
2022/04/24 12:35:28;;;;;;;6.97;2.28;;;;;;;;;;5050634;28;20041;-80
2022/04/24 12:38:16;;;;;;;3.13;1.52;;;;;;;;;;5050453;28;20041;-80
2022/04/24 12:41:01;;;;;;;12.13;2.10;;;;;;;;;;5050877;28;20060;-79
2022/04/24 12:43:47;;;;;;;12.13;2.58;;;;;;;;;;5051089;28;20049;-82
2022/04/24 12:46:34;;;;;;;14.88;2.47;;;;;;;;;;5050519;28;20397;-79
2022/04/24 12:49:30;;;;;;;16.33;3.05;;;;;;;;;;5050322;28;20071;-80
2022/04/24 12:52:21;;;;;;;10.13;2.60;;;;;;;;;;5050188;28;20050;-81
2022/04/24 12:55:07;;;;;;;13.15;2.90;;;;;;;;;;5050555;28;20037;-84
2022/04/24 12:57:54;;;;;;;6.85;2.10;;;;;;;;;;5050745;28;20049;-81
2022/04/24 13:00:40;;;;;;;14.73;3.10;;;;;;;;;;5050559;28;20045;-82
2022/04/24 13:03:25;;;;;;;9.23;2.67;;;;;;;;;;5055900;28;20042;-79
2022/04/24 13:06:11;;;;;;;4.60;2.10;;;;;;;;;;5062144;28;20049;-79
2022/04/24 13:08:57;;;;;;;11.43;1.92;;;;;;;;;;5059302;28;20033;-80
2022/04/24 13:11:43;;;;;;;9.27;2.15;;;;;;;;;;5050214;28;20037;-81
2022/04/24 13:14:32;;;;;;;10.05;2.40;;;;;;;;;;5061232;28;20041;-81
2022/04/24 13:20:21;;;;;;;9.07;1.73;;;;;;;;;;5050410;28;20038;-84
2022/04/24 13:23:09;;;;;;;10.82;2.42;;;;;;;;;;5050063;28;20053;-83
2022/04/24 13:25:54;;;;;;;14.88;3.00;;;;;;;;;;5055484;28;20045;-84
2022/04/24 13:28:39;;;;;;;10.00;2.38;;;;;;;;;;5060018;28;20041;-79
2022/04/24 13:31:25;;;;;;;18.08;3.10;;;;;;;;;;5053308;28;20037;-81
2022/04/24 13:34:10;;;;;;;17.17;3.58;;;;;;;;;;5053079;28;20049;-82
2022/04/24 13:39:59;;;;;;;14.10;2.90;;;;;;;;;;5059946;28;20037;-82
2022/04/24 13:42:45;;;;;;;22.80;3.83;;;;;;;;;;5060257;28;20466;-81
2022/04/24 13:45:33;;;;;;;24.88;3.58;;;;;;;;;;5059970;28;20041;-81
2022/04/24 13:48:21;;;;;;;22.48;3.83;;;;;;;;;;5059815;28;20045;-80
2022/04/24 13:51:07;;;;;;;23.33;4.75;;;;;;;;;;5053009;28;20398;-82
2022/04/24 13:53:55;;;;;;;20.88;3.47;;;;;;;;;;5053028;28;20049;-82
2022/04/24 13:56:40;;;;;;;33.38;4.05;;;;;;;;;;5052915;28;20045;-81
2022/04/24 13:59:29;;;;;;;25.98;3.75;;;;;;;;;;5059537;28;20049;-83
2022/04/24 14:02:16;;;;;;;20.35;3.67;;;;;;;;;;5044868;28;20041;-81
2022/04/24 14:05:02;;;;;;;24.13;4.13;;;;;;;;;;5060423;28;20045;-80
2022/04/24 14:07:52;;;;;;;38.25;5.13;;;;;;;;;;5058835;28;20041;-80
2022/04/24 14:10:37;;;;;;;39.05;5.38;;;;;;;;;;5058153;28;20393;-81
2022/04/24 14:13:23;;;;;;;37.25;4.90;;;;;;;;;;5061180;28;20045;-80
2022/04/24 14:16:08;;;;;;;23.70;4.45;;;;;;;;;;5059583;28;20041;-80
2022/04/24 14:18:54;;;;;;;35.15;5.80;;;;;;;;;;5052974;28;20049;-79
2022/04/24 14:21:39;;;;;;;32.00;5.43;;;;;;;;;;5059261;28;20045;-80
2022/04/24 14:24:25;;;;;;;41.38;5.75;;;;;;;;;;5052474;28;20041;-80
2022/04/24 14:27:13;;;;;;;42.55;5.80;;;;;;;;;;5052485;28;20045;-81
2022/04/24 14:29:58;;;;;;;44.17;6.47;;;;;;;;;;5052411;28;20037;-80
2022/04/24 14:32:44;;;;;;;56.95;6.95;;;;;;;;;;5052370;28;20408;-81
2022/04/24 14:35:29;;;;;;;38.10;5.50;;;;;;;;;;5058933;28;20041;-80
2022/04/24 14:38:15;;;;;;;37.25;5.60;;;;;;;;;;5052558;28;20381;-82
2022/04/24 14:41:00;;;;;;;60.80;5.75;;;;;;;;;;5051386;28;20397;-81
2022/04/24 14:43:46;;;;;;;22.67;3.60;;;;;;;;;;5052284;28;20037;-81
2022/04/24 14:55:46;;;;;;;22.38;4.03;;;;;;;;;;5052125;28;20049;-81
2022/04/24 14:58:32;;;;;;;22.85;3.28;;;;;;;;;;5058558;28;20044;-80
2022/04/24 15:01:17;;;;;;;36.75;4.57;;;;;;;;;;5052112;28;20045;-80
2022/04/24 15:04:03;;;;;;;30.10;4.20;;;;;;;;;;5058738;28;20045;-80
2022/04/24 15:06:49;;;;;;;35.38;4.25;;;;;;;;;;5050605;28;20041;-80
2022/04/24 15:09:34;;;;;;;28.92;3.97;;;;;;;;;;5056637;28;20045;-80
2022/04/24 15:12:20;;;;;;;19.05;4.20;;;;;;;;;;5049874;28;20045;-81
2022/04/24 15:15:07;;;;;;;27.30;3.78;;;;;;;;;;5051739;28;20402;-80
2022/04/24 15:17:52;;;;;;;22.55;3.30;;;;;;;;;;5057560;28;20049;-81
2022/04/24 15:20:38;;;;;;;21.95;2.80;;;;;;;;;;5051887;28;20070;-82
2022/04/24 15:23:26;;;;;;;19.33;2.63;;;;;;;;;;5052043;28;20052;-80
2022/04/24 15:26:11;;;;;;;21.60;3.33;;;;;;;;;;5055886;28;20482;-81
2022/04/24 15:28:56;;;;;;;28.55;4.07;;;;;;;;;;5050803;28;20049;-79
2022/04/24 15:31:43;;;;;;;24.20;3.42;;;;;;;;;;5057747;28;20057;-79
2022/04/24 15:34:30;;;;;;;23.95;3.58;;;;;;;;;;5057969;28;20049;-79
2022/04/24 15:37:15;;;;;;;32.13;4.88;;;;;;;;;;5051065;28;20048;-80
2022/04/24 15:40:04;;;;;;;21.27;3.45;;;;;;;;;;5051336;28;20111;-80
2022/04/24 15:42:51;;;;;;;20.30;3.25;;;;;;;;;;5057679;28;20045;-79
2022/04/24 15:45:36;;;;;;;26.20;3.10;;;;;;;;;;5057385;28;20037;-81
2022/04/24 15:48:21;;;;;;;24.40;3.30;;;;;;;;;;5050879;28;20045;-80
2022/04/24 15:51:08;;;;;;;17.80;2.85;;;;;;;;;;5049874;28;20045;-80
2022/04/24 15:53:53;;;;;;;20.02;3.03;;;;;;;;;;5047996;28;20049;-81
2022/04/24 15:56:40;;;;;;;21.75;3.08;;;;;;;;;;5054375;28;20481;-80
2022/04/24 15:59:25;;;;;;;21.48;2.88;;;;;;;;;;5048535;28;20037;-81
2022/04/24 16:02:19;;;;;;;13.95;2.80;;;;;;;;;;5051025;28;20053;-80
2022/04/24 16:05:09;;;;;;;16.65;2.72;;;;;;;;;;5042925;28;20045;-79
2022/04/24 16:07:55;;;;;;;26.58;3.13;;;;;;;;;;5049276;28;20453;-79
2022/04/24 16:10:41;;;;;;;14.50;2.92;;;;;;;;;;5051152;28;20401;-80
2022/04/24 16:13:27;;;;;;;22.27;2.72;;;;;;;;;;5057441;28;20056;-80
2022/04/24 16:16:13;;;;;;;17.35;3.10;;;;;;;;;;5057712;28;20405;-80
2022/04/24 16:18:59;;;;;;;21.50;3.25;;;;;;;;;;5054836;28;20045;-79
2022/04/24 16:21:45;;;;;;;13.73;2.67;;;;;;;;;;5061708;28;20045;-80
2022/04/24 16:24:33;;;;;;;17.50;4.18;;;;;;;;;;5059208;28;20413;-80
2022/04/24 16:27:18;;;;;;;29.35;3.05;;;;;;;;;;5057805;28;20045;-81
2022/04/24 16:30:05;;;;;;;20.13;5.03;;;;;;;;;;5050835;28;20045;-80
2022/04/24 16:32:50;;;;;;;15.77;4.03;;;;;;;;;;5049878;28;20045;-80
2022/04/24 16:35:35;;;;;;;12.77;3.60;;;;;;;;;;5050363;28;20049;-81
2022/04/24 16:38:21;;;;;;;12.50;3.08;;;;;;;;;;5050168;28;20393;-80
2022/04/24 16:41:08;;;;;;;18.20;3.28;;;;;;;;;;5051006;28;20053;-80
2022/04/24 16:43:54;;;;;;;13.70;3.00;;;;;;;;;;5057252;28;20045;-79
2022/04/24 16:46:40;;;;;;;16.08;2.72;;;;;;;;;;5057106;28;20049;-80
2022/04/24 16:49:28;;;;;;;14.38;3.92;;;;;;;;;;5057380;28;20045;-81
2022/04/24 17:01:27;;;;;;;13.73;2.45;;;;;;;;;;5058943;28;20049;-79
2022/04/24 17:04:13;;;;;;;15.75;1.95;;;;;;;;;;5056850;28;20048;-81
2022/04/24 17:06:58;;;;;;;12.85;2.95;;;;;;;;;;5053324;28;20037;-80
2022/04/24 17:09:43;;;;;;;12.90;5.45;;;;;;;;;;5052803;28;20057;-80
2022/04/24 17:12:31;;;;;;;18.92;4.28;;;;;;;;;;5053149;28;20397;-80
2022/04/24 17:15:17;;;;;;;16.02;3.95;;;;;;;;;;5053253;28;20045;-79
2022/04/24 17:18:02;;;;;;;14.85;3.88;;;;;;;;;;5053738;28;20061;-80
2022/04/24 17:20:48;;;;;;;19.77;4.40;;;;;;;;;;5060468;28;20041;-81
2022/04/24 17:23:34;;;;;;;14.63;4.38;;;;;;;;;;5054040;28;20052;-80
2022/04/24 17:26:20;;;;;;;36.15;5.95;;;;;;;;;;5051810;28;20041;-81
2022/04/24 17:29:07;;;;;;;21.45;5.35;;;;;;;;;;5052806;28;20401;-80